sensor_id;sensor_type;location;lat;lon;timestamp;pressure;altitude;pressure_sealevel;temperature;humidity
75972;BME280;64651;47.540;19.088;2023-02-19T00:00:13;100519.94;;;11.51;60.45
75972;BME280;64651;47.540;19.088;2023-02-19T00:05:16;100527.44;;;11.40;60.76
75972;BME280;64651;47.540;19.088;2023-02-19T00:10:18;100529.88;;;11.42;60.08
75972;BME280;64651;47.540;19.088;2023-02-19T00:15:20;100513.34;;;11.52;59.34
75972;BME280;64651;47.540;19.088;2023-02-19T00:20:22;100515.94;;;11.18;60.50
75972;BME280;64651;47.540;19.088;2023-02-19T00:25:25;100502.19;;;11.13;60.55
75972;BME280;64651;47.540;19.088;2023-02-19T00:30:27;100501.00;;;11.29;60.66
75972;BME280;64651;47.540;19.088;2023-02-19T00:35:32;100495.53;;;11.24;60.73
75972;BME280;64651;47.540;19.088;2023-02-19T00:40:35;100509.91;;;11.11;61.39
75972;BME280;64651;47.540;19.088;2023-02-19T00:45:37;100498.28;;;11.24;60.76
75972;BME280;64651;47.540;19.088;2023-02-19T00:50:39;100498.34;;;11.14;60.90
75972;BME280;64651;47.540;19.088;2023-02-19T00:55:41;100505.53;;;10.99;61.63
75972;BME280;64651;47.540;19.088;2023-02-19T01:00:44;100511.56;;;11.07;61.14
75972;BME280;64651;47.540;19.088;2023-02-19T01:05:46;100511.00;;;11.05;61.06
75972;BME280;64651;47.540;19.088;2023-02-19T01:10:48;100504.91;;;11.23;60.57
75972;BME280;64651;47.540;19.088;2023-02-19T01:15:50;100508.78;;;11.12;60.93
75972;BME280;64651;47.540;19.088;2023-02-19T01:20:53;100512.72;;;10.95;61.62
75972;BME280;64651;47.540;19.088;2023-02-19T01:25:55;100494.00;;;10.87;62.06
75972;BME280;64651;47.540;19.088;2023-02-19T01:31:02;100487.87;;;11.11;61.26
75972;BME280;64651;47.540;19.088;2023-02-19T01:36:05;100481.03;;;11.03;61.45
75972;BME280;64651;47.540;19.088;2023-02-19T01:41:10;100501.59;;;11.26;60.84
75972;BME280;64651;47.540;19.088;2023-02-19T01:46:13;100495.63;;;11.04;61.72
75972;BME280;64651;47.540;19.088;2023-02-19T01:51:17;100497.06;;;10.76;62.39
75972;BME280;64651;47.540;19.088;2023-02-19T01:56:21;100492.13;;;10.63;63.17
75972;BME280;64651;47.540;19.088;2023-02-19T02:01:24;100485.03;;;10.36;63.73
75972;BME280;64651;47.540;19.088;2023-02-19T02:06:33;100494.09;;;10.16;64.41
75972;BME280;64651;47.540;19.088;2023-02-19T02:11:41;100468.25;;;10.43;63.89
75972;BME280;64651;47.540;19.088;2023-02-19T02:22:25;100476.44;;;10.63;63.74
75972;BME280;64651;47.540;19.088;2023-02-19T02:27:58;100437.31;;;10.91;63.31
75972;BME280;64651;47.540;19.088;2023-02-19T02:38:14;100453.50;;;11.03;63.11
75972;BME280;64651;47.540;19.088;2023-02-19T02:43:18;100467.56;;;10.96;63.41
75972;BME280;64651;47.540;19.088;2023-02-19T02:48:27;100467.09;;;10.64;64.52
75972;BME280;64651;47.540;19.088;2023-02-19T02:58:55;100471.44;;;10.90;63.53
75972;BME280;64651;47.540;19.088;2023-02-19T03:04:02;100459.94;;;10.63;64.46
75972;BME280;64651;47.540;19.088;2023-02-19T03:09:21;100470.69;;;10.60;64.92
75972;BME280;64651;47.540;19.088;2023-02-19T03:14:40;100477.59;;;10.42;65.78
75972;BME280;64651;47.540;19.088;2023-02-19T03:20:06;100486.28;;;10.89;64.47
75972;BME280;64651;47.540;19.088;2023-02-19T03:25:17;100487.09;;;10.95;64.34
75972;BME280;64651;47.540;19.088;2023-02-19T03:30:42;100482.47;;;10.85;64.57
75972;BME280;64651;47.540;19.088;2023-02-19T03:35:55;100494.87;;;10.73;65.06
75972;BME280;64651;47.540;19.088;2023-02-19T03:41:08;100487.94;;;10.80;64.74
75972;BME280;64651;47.540;19.088;2023-02-19T03:46:17;100489.34;;;10.68;64.99
75972;BME280;64651;47.540;19.088;2023-02-19T03:51:38;100491.59;;;10.66;65.00
75972;BME280;64651;47.540;19.088;2023-02-19T03:56:53;100508.63;;;10.63;65.07
75972;BME280;64651;47.540;19.088;2023-02-19T04:02:05;100495.16;;;10.51;65.28
75972;BME280;64651;47.540;19.088;2023-02-19T04:07:09;100499.00;;;10.50;65.63
75972;BME280;64651;47.540;19.088;2023-02-19T04:12:13;100497.06;;;10.55;65.57
75972;BME280;64651;47.540;19.088;2023-02-19T04:17:23;100493.25;;;10.26;66.71
75972;BME280;64651;47.540;19.088;2023-02-19T04:22:28;100501.25;;;10.48;65.88
75972;BME280;64651;47.540;19.088;2023-02-19T04:27:31;100492.97;;;10.38;66.12
75972;BME280;64651;47.540;19.088;2023-02-19T04:32:33;100505.34;;;10.40;66.00
75972;BME280;64651;47.540;19.088;2023-02-19T04:37:35;100495.75;;;10.23;66.40
75972;BME280;64651;47.540;19.088;2023-02-19T04:42:37;100495.69;;;9.87;67.69
75972;BME280;64651;47.540;19.088;2023-02-19T04:47:40;100498.63;;;9.60;68.97
75972;BME280;64651;47.540;19.088;2023-02-19T04:52:42;100499.50;;;9.76;68.21
75972;BME280;64651;47.540;19.088;2023-02-19T04:57:44;100502.81;;;9.83;68.07
75972;BME280;64651;47.540;19.088;2023-02-19T05:02:46;100502.34;;;10.16;66.61
75972;BME280;64651;47.540;19.088;2023-02-19T05:07:48;100486.91;;;10.10;66.57
75972;BME280;64651;47.540;19.088;2023-02-19T05:12:50;100477.28;;;10.03;66.39
75972;BME280;64651;47.540;19.088;2023-02-19T05:17:53;100480.06;;;10.28;65.68
75972;BME280;64651;47.540;19.088;2023-02-19T05:22:55;100469.91;;;10.24;65.49
75972;BME280;64651;47.540;19.088;2023-02-19T05:27:57;100491.06;;;10.38;65.15
75972;BME280;64651;47.540;19.088;2023-02-19T05:33:19;100494.06;;;10.52;65.87
75972;BME280;64651;47.540;19.088;2023-02-19T05:38:22;100502.53;;;10.81;63.50
75972;BME280;64651;47.540;19.088;2023-02-19T05:43:24;100483.56;;;10.74;63.56
75972;BME280;64651;47.540;19.088;2023-02-19T05:48:27;100489.62;;;10.76;63.67
75972;BME280;64651;47.540;19.088;2023-02-19T05:53:29;100473.12;;;10.76;63.53
75972;BME280;64651;47.540;19.088;2023-02-19T05:58:31;100487.41;;;10.83;64.43
75972;BME280;64651;47.540;19.088;2023-02-19T06:03:33;100494.28;;;10.91;64.96
75972;BME280;64651;47.540;19.088;2023-02-19T06:08:36;100492.38;;;10.76;65.82
75972;BME280;64651;47.540;19.088;2023-02-19T06:13:39;100506.94;;;10.87;66.56
75972;BME280;64651;47.540;19.088;2023-02-19T06:18:42;100501.72;;;10.75;67.57
75972;BME280;64651;47.540;19.088;2023-02-19T06:23:44;100493.47;;;10.75;68.62
75972;BME280;64651;47.540;19.088;2023-02-19T06:28:48;100488.03;;;10.60;70.33
75972;BME280;64651;47.540;19.088;2023-02-19T06:33:50;100481.97;;;10.48;71.81
75972;BME280;64651;47.540;19.088;2023-02-19T06:38:53;100479.50;;;10.51;72.50
75972;BME280;64651;47.540;19.088;2023-02-19T06:43:58;100475.09;;;10.45;72.74
75972;BME280;64651;47.540;19.088;2023-02-19T06:49:00;100472.91;;;10.42;73.25
75972;BME280;64651;47.540;19.088;2023-02-19T06:54:04;100468.25;;;10.43;73.68
75972;BME280;64651;47.540;19.088;2023-02-19T06:59:09;100476.47;;;10.33;74.08
75972;BME280;64651;47.540;19.088;2023-02-19T07:04:12;100448.72;;;10.29;74.03
75972;BME280;64651;47.540;19.088;2023-02-19T07:09:14;100480.06;;;10.48;73.98
75972;BME280;64651;47.540;19.088;2023-02-19T07:14:17;100489.13;;;10.59;73.22
75972;BME280;64651;47.540;19.088;2023-02-19T07:19:19;100473.12;;;10.71;71.79
75972;BME280;64651;47.540;19.088;2023-02-19T07:24:21;100478.06;;;10.84;71.41
75972;BME280;64651;47.540;19.088;2023-02-19T07:29:23;100478.84;;;10.95;70.93
75972;BME280;64651;47.540;19.088;2023-02-19T07:34:25;100459.81;;;10.98;70.02
75972;BME280;64651;47.540;19.088;2023-02-19T07:39:28;100466.38;;;11.13;69.64
75972;BME280;64651;47.540;19.088;2023-02-19T07:44:30;100460.84;;;11.18;69.65
75972;BME280;64651;47.540;19.088;2023-02-19T07:49:32;100443.41;;;10.73;70.55
75972;BME280;64651;47.540;19.088;2023-02-19T07:54:34;100463.81;;;10.52;71.68
75972;BME280;64651;47.540;19.088;2023-02-19T07:59:37;100472.91;;;10.32;72.26
75972;BME280;64651;47.540;19.088;2023-02-19T08:04:39;100475.91;;;10.46;72.06
75972;BME280;64651;47.540;19.088;2023-02-19T08:09:41;100489.66;;;10.51;71.83
75972;BME280;64651;47.540;19.088;2023-02-19T08:14:44;100495.16;;;10.51;72.68
75972;BME280;64651;47.540;19.088;2023-02-19T08:19:47;100477.53;;;10.72;72.53
75972;BME280;64651;47.540;19.088;2023-02-19T08:24:49;100503.94;;;10.63;75.33
75972;BME280;64651;47.540;19.088;2023-02-19T08:29:51;100508.63;;;10.57;78.19
75972;BME280;64651;47.540;19.088;2023-02-19T08:34:53;100508.37;;;10.44;80.36
75972;BME280;64651;47.540;19.088;2023-02-19T08:39:55;100519.91;;;10.56;80.72
75972;BME280;64651;47.540;19.088;2023-02-19T08:44:57;100503.09;;;9.87;88.71
75972;BME280;64651;47.540;19.088;2023-02-19T08:49:59;100489.91;;;9.84;90.90
75972;BME280;64651;47.540;19.088;2023-02-19T08:55:03;100495.19;;;10.21;89.89
75972;BME280;64651;47.540;19.088;2023-02-19T09:00:07;100493.81;;;10.38;88.18
75972;BME280;64651;47.540;19.088;2023-02-19T09:05:10;100485.28;;;10.45;87.49
75972;BME280;64651;47.540;19.088;2023-02-19T09:10:13;100481.44;;;10.36;87.35
75972;BME280;64651;47.540;19.088;2023-02-19T09:15:15;100497.09;;;10.25;88.27
75972;BME280;64651;47.540;19.088;2023-02-19T09:20:17;100495.41;;;10.14;89.18
75972;BME280;64651;47.540;19.088;2023-02-19T09:25:20;100496.25;;;10.09;88.95
75972;BME280;64651;47.540;19.088;2023-02-19T09:30:22;100490.75;;;10.14;88.80
75972;BME280;64651;47.540;19.088;2023-02-19T09:35:25;100497.91;;;10.56;87.49
75972;BME280;64651;47.540;19.088;2023-02-19T09:40:29;100482.53;;;10.55;85.19
75972;BME280;64651;47.540;19.088;2023-02-19T09:45:31;100474.22;;;10.75;84.17
75972;BME280;64651;47.540;19.088;2023-02-19T09:50:45;100448.75;;;11.14;81.27
75972;BME280;64651;47.540;19.088;2023-02-19T09:55:51;100443.34;;;11.48;79.29
75972;BME280;64651;47.540;19.088;2023-02-19T10:00:55;100451.38;;;12.51;74.69
75972;BME280;64651;47.540;19.088;2023-02-19T10:06:33;100451.41;;;12.75;71.69
75972;BME280;64651;47.540;19.088;2023-02-19T10:11:27;100416.69;;;16.94;58.97
75972;BME280;64651;47.540;19.088;2023-02-19T10:16:30;100424.19;;;17.59;53.90
75972;BME280;64651;47.540;19.088;2023-02-19T10:21:32;100401.25;;;18.94;49.54
75972;BME280;64651;47.540;19.088;2023-02-19T10:26:34;100388.31;;;19.40;48.02
75972;BME280;64651;47.540;19.088;2023-02-19T10:31:37;100372.50;;;21.33;43.48
75972;BME280;64651;47.540;19.088;2023-02-19T10:36:40;100355.41;;;18.28;51.70
75972;BME280;64651;47.540;19.088;2023-02-19T10:41:47;100352.66;;;15.62;57.77
75972;BME280;64651;47.540;19.088;2023-02-19T10:46:52;100348.72;;;14.91;58.42
75972;BME280;64651;47.540;19.088;2023-02-19T10:51:59;100324.31;;;18.09;51.20
75972;BME280;64651;47.540;19.088;2023-02-19T11:02:20;100304.87;;;21.19;42.24
75972;BME280;64651;47.540;19.088;2023-02-19T11:07:23;100297.38;;;21.91;40.40
75972;BME280;64651;47.540;19.088;2023-02-19T11:12:30;100278.19;;;23.18;37.27
75972;BME280;64651;47.540;19.088;2023-02-19T11:17:34;100286.06;;;21.99;37.79
75972;BME280;64651;47.540;19.088;2023-02-19T11:22:38;100283.53;;;21.26;39.13
75972;BME280;64651;47.540;19.088;2023-02-19T11:28:06;100261.75;;;21.08;37.57
75972;BME280;64651;47.540;19.088;2023-02-19T11:33:29;100275.34;;;21.33;36.71
75972;BME280;64651;47.540;19.088;2023-02-19T11:38:31;100256.69;;;22.56;35.68
75972;BME280;64651;47.540;19.088;2023-02-19T11:43:47;100241.22;;;21.99;35.38
75972;BME280;64651;47.540;19.088;2023-02-19T11:49:13;100271.41;;;22.84;34.40
75972;BME280;64651;47.540;19.088;2023-02-19T11:59:47;100232.03;;;23.35;32.25
75972;BME280;64651;47.540;19.088;2023-02-19T12:10:27;100223.97;;;24.14;30.59
75972;BME280;64651;47.540;19.088;2023-02-19T12:15:56;100228.69;;;24.82;29.10
75972;BME280;64651;47.540;19.088;2023-02-19T12:26:27;100217.56;;;25.49;28.64
75972;BME280;64651;47.540;19.088;2023-02-19T12:31:43;100222.91;;;24.45;30.26
75972;BME280;64651;47.540;19.088;2023-02-19T12:42:47;100212.16;;;25.36;28.52
75972;BME280;64651;47.540;19.088;2023-02-19T12:48:28;100219.47;;;23.10;32.68
75972;BME280;64651;47.540;19.088;2023-02-19T12:53:40;100260.69;;;19.58;40.25
75972;BME280;64651;47.540;19.088;2023-02-19T12:58:50;100248.13;;;14.27;60.17
75972;BME280;64651;47.540;19.088;2023-02-19T13:04:13;100252.91;;;13.16;61.76
75972;BME280;64651;47.540;19.088;2023-02-19T13:09:27;100279.72;;;13.15;59.74
75972;BME280;64651;47.540;19.088;2023-02-19T13:14:44;100260.72;;;13.27;59.69
75972;BME280;64651;47.540;19.088;2023-02-19T13:19:49;100245.66;;;18.50;43.40
75972;BME280;64651;47.540;19.088;2023-02-19T13:24:54;100250.78;;;18.01;44.74
75972;BME280;64651;47.540;19.088;2023-02-19T13:30:05;100272.22;;;14.81;60.45
75972;BME280;64651;47.540;19.088;2023-02-19T13:40:36;100270.19;;;13.02;67.40
75972;BME280;64651;47.540;19.088;2023-02-19T13:45:42;100273.94;;;12.50;70.84
75972;BME280;64651;47.540;19.088;2023-02-19T13:50:47;100284.91;;;12.13;71.62
75972;BME280;64651;47.540;19.088;2023-02-19T13:55:50;100301.78;;;11.72;74.06
75972;BME280;64651;47.540;19.088;2023-02-19T14:00:53;100292.31;;;11.21;74.67
75972;BME280;64651;47.540;19.088;2023-02-19T14:06:05;100308.37;;;11.09;75.87
75972;BME280;64651;47.540;19.088;2023-02-19T14:11:08;100328.72;;;11.13;74.11
75972;BME280;64651;47.540;19.088;2023-02-19T14:16:49;100341.25;;;11.29;71.61
75972;BME280;64651;47.540;19.088;2023-02-19T14:21:52;100350.09;;;11.26;71.42
75972;BME280;64651;47.540;19.088;2023-02-19T14:26:55;100349.66;;;11.48;69.39
75972;BME280;64651;47.540;19.088;2023-02-19T14:31:58;100361.91;;;11.75;63.54
75972;BME280;64651;47.540;19.088;2023-02-19T14:37:02;100375.53;;;12.48;60.01
75972;BME280;64651;47.540;19.088;2023-02-19T14:42:16;100382.16;;;14.07;54.02
75972;BME280;64651;47.540;19.088;2023-02-19T14:47:24;100416.56;;;14.01;55.48
75972;BME280;64651;47.540;19.088;2023-02-19T14:52:40;100394.28;;;12.99;58.80
75972;BME280;64651;47.540;19.088;2023-02-19T14:57:47;100389.44;;;14.49;55.37
75972;BME280;64651;47.540;19.088;2023-02-19T15:02:51;100386.72;;;13.66;56.29
75972;BME280;64651;47.540;19.088;2023-02-19T15:08:13;100386.81;;;12.76;59.02
75972;BME280;64651;47.540;19.088;2023-02-19T15:13:24;100407.13;;;11.69;64.19
75972;BME280;64651;47.540;19.088;2023-02-19T15:18:29;100393.16;;;11.07;65.71
75972;BME280;64651;47.540;19.088;2023-02-19T15:23:37;100413.03;;;11.92;63.75
75972;BME280;64651;47.540;19.088;2023-02-19T15:28:39;100400.19;;;12.11;62.22
75972;BME280;64651;47.540;19.088;2023-02-19T15:33:49;100411.38;;;11.52;64.33
75972;BME280;64651;47.540;19.088;2023-02-19T15:39:01;100388.94;;;11.24;65.74
75972;BME280;64651;47.540;19.088;2023-02-19T15:44:13;100383.63;;;10.89;66.71
75972;BME280;64651;47.540;19.088;2023-02-19T15:49:30;100384.78;;;10.68;67.44
75972;BME280;64651;47.540;19.088;2023-02-19T15:55:00;100394.50;;;10.45;68.58
75972;BME280;64651;47.540;19.088;2023-02-19T16:05:15;100433.00;;;10.50;67.84
75972;BME280;64651;47.540;19.088;2023-02-19T16:10:23;100430.56;;;10.33;68.29
75972;BME280;64651;47.540;19.088;2023-02-19T16:15:28;100426.13;;;10.02;69.17
75972;BME280;64651;47.540;19.088;2023-02-19T16:20:32;100437.16;;;9.87;70.41
75972;BME280;64651;47.540;19.088;2023-02-19T16:25:40;100458.03;;;9.98;69.75
75972;BME280;64651;47.540;19.088;2023-02-19T16:30:45;100436.06;;;10.23;69.07
75972;BME280;64651;47.540;19.088;2023-02-19T16:35:47;100467.16;;;10.24;71.70
75972;BME280;64651;47.540;19.088;2023-02-19T16:45:53;100500.03;;;9.73;75.97
75972;BME280;64651;47.540;19.088;2023-02-19T16:50:55;100484.44;;;9.01;79.12
75972;BME280;64651;47.540;19.088;2023-02-19T16:55:58;100496.94;;;8.82;81.10
75972;BME280;64651;47.540;19.088;2023-02-19T17:01:00;100494.81;;;8.94;78.10
75972;BME280;64651;47.540;19.088;2023-02-19T17:06:03;100488.75;;;8.92;77.64
75972;BME280;64651;47.540;19.088;2023-02-19T17:11:10;100515.09;;;8.88;77.41
75972;BME280;64651;47.540;19.088;2023-02-19T17:16:19;100524.81;;;8.69;78.13
75972;BME280;64651;47.540;19.088;2023-02-19T17:21:25;100520.12;;;8.59;78.54
75972;BME280;64651;47.540;19.088;2023-02-19T17:26:29;100525.50;;;8.49;78.45
75972;BME280;64651;47.540;19.088;2023-02-19T17:31:31;100524.19;;;8.57;78.10
75972;BME280;64651;47.540;19.088;2023-02-19T17:36:35;100537.81;;;8.41;78.53
75972;BME280;64651;47.540;19.088;2023-02-19T17:41:38;100524.69;;;8.17;79.40
75972;BME280;64651;47.540;19.088;2023-02-19T17:46:41;100547.50;;;8.27;78.53
75972;BME280;64651;47.540;19.088;2023-02-19T17:51:45;100565.84;;;8.22;78.12
75972;BME280;64651;47.540;19.088;2023-02-19T17:56:47;100559.81;;;7.93;78.72
75972;BME280;64651;47.540;19.088;2023-02-19T18:01:49;100576.63;;;7.80;80.08
75972;BME280;64651;47.540;19.088;2023-02-19T18:06:51;100574.59;;;7.70;78.63
75972;BME280;64651;47.540;19.088;2023-02-19T18:11:54;100576.59;;;8.28;75.37
75972;BME280;64651;47.540;19.088;2023-02-19T18:16:57;100599.69;;;8.64;73.52
75972;BME280;64651;47.540;19.088;2023-02-19T18:21:59;100607.03;;;8.59;73.17
75972;BME280;64651;47.540;19.088;2023-02-19T18:27:01;100606.84;;;8.38;73.43
75972;BME280;64651;47.540;19.088;2023-02-19T18:32:04;100630.53;;;8.49;73.04
75972;BME280;64651;47.540;19.088;2023-02-19T18:37:06;100657.59;;;8.19;74.42
75972;BME280;64651;47.540;19.088;2023-02-19T18:42:08;100673.44;;;7.90;76.02
75972;BME280;64651;47.540;19.088;2023-02-19T18:47:11;100672.13;;;7.93;75.32
75972;BME280;64651;47.540;19.088;2023-02-19T18:52:14;100681.03;;;8.05;75.02
75972;BME280;64651;47.540;19.088;2023-02-19T18:57:17;100709.59;;;7.49;77.50
75972;BME280;64651;47.540;19.088;2023-02-19T19:02:20;100725.03;;;7.77;76.58
75972;BME280;64651;47.540;19.088;2023-02-19T19:07:23;100717.34;;;7.73;76.96
75972;BME280;64651;47.540;19.088;2023-02-19T19:12:25;100732.75;;;8.01;77.13
75972;BME280;64651;47.540;19.088;2023-02-19T19:17:27;100731.13;;;8.22;75.22
75972;BME280;64651;47.540;19.088;2023-02-19T19:22:29;100728.41;;;8.05;75.58
75972;BME280;64651;47.540;19.088;2023-02-19T19:27:32;100710.00;;;8.23;74.93
75972;BME280;64651;47.540;19.088;2023-02-19T19:32:34;100705.56;;;8.17;74.96
75972;BME280;64651;47.540;19.088;2023-02-19T19:37:36;100684.31;;;8.07;75.23
75972;BME280;64651;47.540;19.088;2023-02-19T19:42:38;100710.97;;;7.90;76.21
75972;BME280;64651;47.540;19.088;2023-02-19T19:47:46;100720.84;;;7.91;76.22
75972;BME280;64651;47.540;19.088;2023-02-19T19:52:49;100734.72;;;8.06;75.38
75972;BME280;64651;47.540;19.088;2023-02-19T19:57:51;100710.69;;;8.13;74.56
75972;BME280;64651;47.540;19.088;2023-02-19T20:02:55;100732.44;;;8.20;74.78
75972;BME280;64651;47.540;19.088;2023-02-19T20:07:57;100754.00;;;8.11;74.48
75972;BME280;64651;47.540;19.088;2023-02-19T20:12:59;100798.41;;;8.13;74.28
75972;BME280;64651;47.540;19.088;2023-02-19T20:18:02;100793.44;;;8.10;73.15
75972;BME280;64651;47.540;19.088;2023-02-19T20:23:04;100813.94;;;8.07;73.57
75972;BME280;64651;47.540;19.088;2023-02-19T20:28:07;100822.22;;;8.12;73.85
75972;BME280;64651;47.540;19.088;2023-02-19T20:33:09;100851.31;;;8.13;71.08
75972;BME280;64651;47.540;19.088;2023-02-19T20:38:14;100835.50;;;7.99;68.51
75972;BME280;64651;47.540;19.088;2023-02-19T20:43:16;100880.47;;;8.03;67.12
75972;BME280;64651;47.540;19.088;2023-02-19T20:48:18;100873.69;;;7.89;66.73
75972;BME280;64651;47.540;19.088;2023-02-19T20:53:20;100891.09;;;7.99;67.41
75972;BME280;64651;47.540;19.088;2023-02-19T20:58:23;100905.13;;;7.69;65.71
75972;BME280;64651;47.540;19.088;2023-02-19T21:03:26;100907.84;;;7.36;64.75
75972;BME280;64651;47.540;19.088;2023-02-19T21:08:28;100906.97;;;7.19;64.99
75972;BME280;64651;47.540;19.088;2023-02-19T21:13:30;100913.75;;;6.88;65.99
75972;BME280;64651;47.540;19.088;2023-02-19T21:18:33;100912.13;;;7.04;62.92
75972;BME280;64651;47.540;19.088;2023-02-19T21:23:35;100930.56;;;6.68;63.39
75972;BME280;64651;47.540;19.088;2023-02-19T21:28:38;100939.28;;;6.19;64.05
75972;BME280;64651;47.540;19.088;2023-02-19T21:33:41;100943.25;;;5.81;66.08
75972;BME280;64651;47.540;19.088;2023-02-19T21:38:43;100946.88;;;5.93;64.10
75972;BME280;64651;47.540;19.088;2023-02-19T21:43:45;100962.59;;;5.80;63.53
75972;BME280;64651;47.540;19.088;2023-02-19T21:48:53;100963.50;;;5.62;63.24
75972;BME280;64651;47.540;19.088;2023-02-19T21:53:56;100955.94;;;5.76;60.13
75972;BME280;64651;47.540;19.088;2023-02-19T21:58:58;100931.78;;;5.49;60.06
75972;BME280;64651;47.540;19.088;2023-02-19T22:04:00;100946.53;;;5.60;58.17
75972;BME280;64651;47.540;19.088;2023-02-19T22:09:03;100948.31;;;5.54;57.63
75972;BME280;64651;47.540;19.088;2023-02-19T22:14:05;100942.88;;;5.66;56.25
75972;BME280;64651;47.540;19.088;2023-02-19T22:19:08;100964.41;;;5.44;56.67
75972;BME280;64651;47.540;19.088;2023-02-19T22:24:18;100957.78;;;5.22;56.06
75972;BME280;64651;47.540;19.088;2023-02-19T22:29:21;100965.16;;;5.21;55.59
75972;BME280;64651;47.540;19.088;2023-02-19T22:34:24;100977.81;;;5.16;55.25
75972;BME280;64651;47.540;19.088;2023-02-19T22:39:27;100948.97;;;4.90;56.20
75972;BME280;64651;47.540;19.088;2023-02-19T22:44:29;100996.78;;;4.93;56.40
75972;BME280;64651;47.540;19.088;2023-02-19T22:49:31;100987.91;;;4.97;55.64
75972;BME280;64651;47.540;19.088;2023-02-19T22:54:34;101018.81;;;4.91;56.07
75972;BME280;64651;47.540;19.088;2023-02-19T22:59:37;101000.09;;;4.95;55.09
75972;BME280;64651;47.540;19.088;2023-02-19T23:04:39;101008.88;;;4.78;55.01
75972;BME280;64651;47.540;19.088;2023-02-19T23:09:41;101023.19;;;5.10;52.75
75972;BME280;64651;47.540;19.088;2023-02-19T23:14:45;101034.69;;;5.12;52.33
75972;BME280;64651;47.540;19.088;2023-02-19T23:19:47;101054.63;;;4.95;53.20
75972;BME280;64651;47.540;19.088;2023-02-19T23:24:52;101058.31;;;4.82;53.29
75972;BME280;64651;47.540;19.088;2023-02-19T23:29:56;101056.34;;;4.71;53.69
75972;BME280;64651;47.540;19.088;2023-02-19T23:34:58;101078.09;;;4.53;54.32
75972;BME280;64651;47.540;19.088;2023-02-19T23:40:00;101097.97;;;4.60;53.91
75972;BME280;64651;47.540;19.088;2023-02-19T23:45:02;101084.34;;;4.35;54.53
75972;BME280;64651;47.540;19.088;2023-02-19T23:50:05;101107.13;;;4.40;54.83
75972;BME280;64651;47.540;19.088;2023-02-19T23:55:08;101111.56;;;4.35;55.11
